Time;durP1;ratioP1;P1;durP2;ratioP2;P2;SDS_P1;SDS_P2;PMS_P1;PMS_P2;Temp;Humidity;BMP_temperature;BMP_pressure;BME280_temperature;BME280_humidity;BME280_pressure;Samples;Min_cycle;Max_cycle;Signal;HPM_P1;HPM_P2
2021/10/02 00:34:13;;;;;;;17.92;9.23;;;;;;;11.88;79.17;90852.81;5047203;28;20833;-89
2021/10/02 00:36:55;;;;;;;16.23;8.85;;;;;;;11.84;79.19;90856.44;5051045;28;20024;-88
2021/10/02 00:44:49;;;;;;;13.70;6.18;;;;;;;11.88;73.22;90868.50;5022118;28;20103;-89
2021/10/02 00:47:18;;;;;;;9.75;5.20;;;;;;;11.80;72.38;90868.59;5019321;28;20491;-88
2021/10/02 00:49:44;;;;;;;10.07;4.35;;;;;;;11.58;68.09;90869.94;5019005;28;20030;-88
2021/10/02 00:52:12;;;;;;;4.30;2.13;;;;;;;11.67;58.39;90868.69;5017684;28;20049;-89
2021/10/02 00:54:37;;;;;;;5.20;2.30;;;;;;;11.57;55.76;90866.56;5049091;28;20559;-88
2021/10/02 00:57:03;;;;;;;3.75;2.03;;;;;;;11.46;57.31;90853.25;5022725;28;20048;-88
2021/10/02 00:59:30;;;;;;;4.25;1.95;;;;;;;11.53;58.20;90859.75;5039003;28;20032;-89
2021/10/02 01:02:02;;;;;;;4.93;2.30;;;;;;;11.35;56.28;90854.84;5039122;28;20386;-88
2021/10/02 01:04:51;;;;;;;3.42;1.83;;;;;;;11.37;58.50;90857.84;5015421;28;20033;-88
2021/10/02 01:07:35;;;;;;;3.53;1.80;;;;;;;11.34;53.00;90858.53;5038743;28;20029;-87
2021/10/02 01:10:12;;;;;;;3.97;2.33;;;;;;;11.26;52.80;90849.00;5056020;28;20094;-88
2021/10/02 01:13:03;;;;;;;3.97;1.60;;;;;;;11.35;51.74;90841.78;5038460;28;20043;-87
2021/10/02 01:15:49;;;;;;;1.80;1.08;;;;;;;11.26;49.97;90838.56;5029726;28;20033;-88
2021/10/02 01:18:23;;;;;;;2.08;1.15;;;;;;;11.24;48.31;90825.09;5038020;28;20103;-91
2021/10/02 01:21:00;;;;;;;2.07;1.20;;;;;;;11.14;49.80;90831.56;5038630;28;20025;-89
2021/10/02 01:23:32;;;;;;;2.17;1.20;;;;;;;11.14;50.25;90828.19;5021391;28;20029;-89
2021/10/02 01:26:16;;;;;;;3.92;1.52;;;;;;;11.08;51.46;90832.88;5018253;28;20030;-88
2021/10/02 01:28:41;;;;;;;3.63;1.40;;;;;;;10.72;53.41;90834.50;5018581;28;20026;-89
2021/10/02 01:31:19;;;;;;;3.78;1.65;;;;;;;10.84;53.71;90828.50;5021583;28;20124;-89
2021/10/02 01:37:23;;;;;;;4.05;1.30;;;;;;;10.61;54.44;90835.31;5020332;28;20095;-89
2021/10/02 01:47:47;;;;;;;;;;;;;;;10.40;54.79;90835.44;5055952;28;20028;-88
2021/10/02 01:50:13;;;;;;;2.53;1.10;;;;;;;10.27;55.00;90824.28;5054045;28;20317;-89
2021/10/02 01:52:39;;;;;;;2.90;1.27;;;;;;;10.37;54.74;90830.91;5007127;28;20025;-89
2021/10/02 01:55:06;;;;;;;3.65;1.33;;;;;;;10.47;53.70;90827.84;5048882;28;20018;-91
2021/10/02 01:57:38;;;;;;;2.78;1.52;;;;;;;10.40;54.72;90825.78;5061585;28;20025;-90
2021/10/02 02:00:07;;;;;;;2.97;1.30;;;;;;;10.39;54.37;90819.06;5062853;28;20029;-90
2021/10/02 02:02:33;;;;;;;2.15;1.20;;;;;;;10.42;54.29;90822.84;5022926;28;20482;-89
2021/10/02 02:04:59;;;;;;;6.68;1.20;;;;;;;10.37;54.82;90823.09;5038019;28;20052;-89
2021/10/02 02:07:24;;;;;;;2.85;1.13;;;;;;;10.39;55.24;90823.50;5038124;28;20474;-89
2021/10/02 02:09:51;;;;;;;1.90;1.00;;;;;;;10.46;54.99;90824.47;5018715;28;20021;-89
2021/10/02 02:12:17;;;;;;;2.58;1.30;;;;;;;10.39;55.31;90828.72;5004132;28;20032;-89
2021/10/02 02:14:42;;;;;;;10.02;3.08;;;;;;;10.40;55.37;90825.78;5038003;28;20036;-89
2021/10/02 02:17:08;;;;;;;4.07;1.50;;;;;;;10.32;55.58;90821.47;5037380;28;20173;-88
2021/10/02 02:19:33;;;;;;;4.38;1.45;;;;;;;10.37;55.38;90818.63;5037315;28;20021;-89
2021/10/02 02:21:59;;;;;;;2.88;1.17;;;;;;;10.50;53.92;90811.56;5020359;28;20402;-89
2021/10/02 02:24:26;;;;;;;2.05;0.93;;;;;;;10.47;52.62;90817.44;5019840;28;20401;-89
2021/10/02 02:26:51;;;;;;;5.22;1.08;;;;;;;10.43;53.45;90809.50;5036425;28;20453;-89
2021/10/02 02:29:17;;;;;;;1.70;0.88;;;;;;;10.39;52.50;90815.69;5019814;28;20025;-89
2021/10/02 02:31:42;;;;;;;1.98;1.00;;;;;;;10.41;52.87;90810.91;5005999;28;20057;-89
2021/10/02 02:34:08;;;;;;;4.13;1.10;;;;;;;10.40;53.62;90812.00;5017434;28;20021;-90
2021/10/02 02:36:33;;;;;;;2.88;1.23;;;;;;;10.14;55.97;90801.91;5018216;28;20032;-89
2021/10/02 02:38:59;;;;;;;2.50;1.00;;;;;;;10.17;55.01;90796.81;5010173;28;20029;-90
2021/10/02 02:41:24;;;;;;;2.83;1.10;;;;;;;10.22;55.46;90793.25;5010814;28;20021;-89
2021/10/02 02:43:49;;;;;;;2.70;0.90;;;;;;;10.08;55.50;90798.03;5020445;28;20169;-89
2021/10/02 02:46:22;;;;;;;1.88;0.80;;;;;;;10.08;56.26;90779.81;5036586;28;20070;-89
2021/10/02 02:49:06;;;;;;;1.48;0.80;;;;;;;10.04;56.27;90796.06;5015165;28;20033;-90
2021/10/02 02:52:02;;;;;;;3.22;1.00;;;;;;;10.01;56.74;90788.91;5038557;28;20048;-89
2021/10/02 02:54:36;;;;;;;8.27;2.60;;;;;;;9.87;57.82;90793.69;5043718;28;20055;-90
2021/10/02 02:57:07;;;;;;;;;;;;;;;9.81;58.09;90795.75;5037241;28;20044;-89
2021/10/02 02:59:35;;;;;;;4.85;1.63;;;;;;;9.53;60.24;90789.66;5054145;28;19955;-89
2021/10/02 03:02:01;;;;;;;2.53;1.40;;;;;;;9.48;60.03;90793.25;5017344;28;20044;-89
2021/10/02 03:04:28;;;;;;;2.97;1.13;;;;;;;9.40;60.84;90781.09;5016980;28;20025;-89
2021/10/02 03:06:54;;;;;;;3.83;1.33;;;;;;;9.33;62.06;90786.81;5020939;28;20021;-89
2021/10/02 03:09:19;;;;;;;3.55;0.93;;;;;;;9.21;63.77;90778.97;5037523;28;20436;-90
2021/10/02 03:11:45;;;;;;;3.40;1.00;;;;;;;9.13;63.37;90771.28;5037391;28;20475;-90
2021/10/02 03:14:11;;;;;;;3.45;1.15;;;;;;;8.95;63.36;90781.09;5022506;28;20557;-90
2021/10/02 03:16:36;;;;;;;3.13;0.88;;;;;;;8.88;64.31;90781.63;5046701;28;20040;-86
2021/10/02 03:19:03;;;;;;;2.08;1.00;;;;;;;8.97;63.74;90790.06;5057556;28;20051;-88
2021/10/02 03:21:28;;;;;;;3.10;1.25;;;;;;;8.85;64.96;90777.81;5024781;28;20401;-90
2021/10/02 03:23:53;;;;;;;1.85;0.90;;;;;;;8.67;66.03;90775.69;5021527;28;20032;-89
2021/10/02 03:26:19;;;;;;;7.57;1.08;;;;;;;8.49;66.78;90781.03;5016858;28;20509;-90
2021/10/02 03:28:44;;;;;;;2.60;1.20;;;;;;;8.48;66.92;90779.50;5057743;28;20033;-90
2021/10/02 03:31:10;;;;;;;2.53;1.00;;;;;;;8.75;67.62;90793.03;5040839;28;20124;-89
2021/10/02 03:33:36;;;;;;;3.78;1.10;;;;;;;8.74;68.22;90786.34;5041218;28;20056;-89
2021/10/02 03:36:01;;;;;;;2.25;0.90;;;;;;;8.57;67.66;90793.19;5039712;28;20021;-89
2021/10/02 03:38:27;;;;;;;1.63;1.00;;;;;;;8.54;67.68;90799.00;5055141;28;20021;-91
2021/10/02 03:40:57;;;;;;;1.40;0.73;;;;;;;8.38;67.27;90790.28;5021894;28;20376;-90
2021/10/02 03:43:23;;;;;;;1.95;1.17;;;;;;;8.38;68.10;90796.22;5016567;28;20372;-89
2021/10/02 03:45:48;;;;;;;1.30;0.90;;;;;;;8.36;67.94;90792.41;5018532;28;20036;-89
2021/10/02 03:48:14;;;;;;;2.60;0.98;;;;;;;8.40;69.34;90795.16;5018640;28;20053;-90
2021/10/02 03:50:39;;;;;;;2.20;1.00;;;;;;;8.54;63.70;90793.06;5018716;28;20033;-89
2021/10/02 03:53:04;;;;;;;4.15;1.08;;;;;;;8.52;68.21;90790.03;5001917;28;20034;-90
2021/10/02 03:55:30;;;;;;;2.30;1.00;;;;;;;8.35;68.70;90785.69;5018603;28;20018;-88
2021/10/02 03:57:55;;;;;;;1.83;1.00;;;;;;;8.23;69.00;90778.56;5002012;28;20025;-89
2021/10/02 04:00:24;;;;;;;2.22;1.08;;;;;;;8.24;68.42;90780.13;5018473;28;20022;-90
2021/10/02 04:02:49;;;;;;;3.78;1.00;;;;;;;8.17;70.97;90779.09;5019117;28;20029;-90
2021/10/02 04:05:15;;;;;;;3.47;1.10;;;;;;;8.20;70.24;90778.44;5033778;28;20126;-86
2021/10/02 04:07:40;;;;;;;2.72;1.30;;;;;;;8.22;69.92;90777.06;5053226;28;20025;-88
2021/10/02 04:10:06;;;;;;;2.83;0.90;;;;;;;8.15;69.49;90782.75;5030966;28;20029;-86
2021/10/02 04:12:32;;;;;;;2.42;1.00;;;;;;;8.07;71.05;90786.19;5035656;28;20032;-90
2021/10/02 04:14:57;;;;;;;2.85;1.02;;;;;;;8.19;69.63;90787.31;5037715;28;20025;-89
2021/10/02 04:17:23;;;;;;;1.15;0.70;;;;;;;8.06;70.06;90789.84;5021238;28;20036;-89
2021/10/02 04:19:48;;;;;;;1.85;1.10;;;;;;;8.01;71.10;90789.25;5054003;28;20037;-89
2021/10/02 04:22:14;;;;;;;3.20;1.00;;;;;;;8.05;70.16;90793.50;5037616;28;20021;-89
2021/10/02 04:24:40;;;;;;;2.08;1.02;;;;;;;7.99;70.11;90794.78;5020601;28;20033;-88
2021/10/02 04:27:06;;;;;;;1.65;0.70;;;;;;;8.05;70.16;90784.97;5037600;28;20021;-88
2021/10/02 04:29:31;;;;;;;4.45;1.30;;;;;;;7.92;70.27;90789.31;5054192;28;20032;-89
2021/10/02 04:31:57;;;;;;;2.25;1.00;;;;;;;7.84;71.16;90797.91;5038325;28;20021;-91
2021/10/02 04:34:22;;;;;;;1.88;0.80;;;;;;;7.75;71.20;90789.41;5037708;28;20020;-90
2021/10/02 04:36:48;;;;;;;2.08;1.52;;;;;;;7.70;71.37;90781.78;5037507;28;20071;-89
2021/10/02 04:39:14;;;;;;;2.75;0.88;;;;;;;7.57;71.77;90784.31;5017780;28;20021;-88
2021/10/02 04:41:39;;;;;;;2.47;0.90;;;;;;;7.40;72.07;90776.59;5000953;28;20045;-88
2021/10/02 04:44:05;;;;;;;1.75;0.95;;;;;;;7.50;71.88;90780.69;5001056;28;20030;-88
2021/10/02 04:46:30;;;;;;;2.63;0.80;;;;;;;7.46;72.27;90780.53;5029967;28;20102;-89
2021/10/02 04:48:56;;;;;;;2.60;0.90;;;;;;;7.40;73.12;90784.38;5020362;28;20060;-90
2021/10/02 04:51:21;;;;;;;1.52;0.80;;;;;;;7.41;72.29;90788.47;5016038;28;20029;-89
2021/10/02 04:53:47;;;;;;;2.58;0.90;;;;;;;7.44;71.09;90785.28;5019472;28;20036;-89
2021/10/02 04:56:14;;;;;;;2.83;0.88;;;;;;;7.39;72.03;90778.44;5036457;28;20033;-90
2021/10/02 04:58:40;;;;;;;1.70;0.88;;;;;;;7.47;72.09;90776.88;5054161;28;20055;-89
2021/10/02 05:01:08;;;;;;;1.70;0.90;;;;;;;7.45;72.31;90771.22;5036902;28;20157;-89
2021/10/02 05:03:34;;;;;;;3.40;0.90;;;;;;;7.35;72.45;90776.75;5036689;28;20463;-89
2021/10/02 05:06:02;;;;;;;2.10;1.00;;;;;;;7.25;73.10;90767.50;5036682;28;20104;-89
2021/10/02 05:08:27;;;;;;;1.63;0.80;;;;;;;7.24;72.89;90767.81;5035914;28;20619;-88
2021/10/02 05:10:53;;;;;;;3.92;1.02;;;;;;;7.24;73.48;90765.97;5036735;28;20028;-89
2021/10/02 05:13:18;;;;;;;2.97;0.90;;;;;;;7.18;74.44;90767.22;5019692;28;20082;-89
2021/10/02 05:15:44;;;;;;;2.35;1.30;;;;;;;7.29;72.89;90762.47;5033511;28;20044;-89
2021/10/02 05:18:09;;;;;;;3.83;1.00;;;;;;;7.42;73.27;90769.28;5033672;28;20087;-92
2021/10/02 05:20:35;;;;;;;1.90;0.90;;;;;;;7.43;73.31;90758.59;5016035;28;20422;-89
2021/10/02 05:23:00;;;;;;;3.45;1.10;;;;;;;7.47;72.17;90752.78;5019588;28;20402;-88
2021/10/02 05:25:26;;;;;;;3.17;0.98;;;;;;;7.54;72.30;90755.66;5020150;28;20029;-89
2021/10/02 05:27:51;;;;;;;3.60;1.20;;;;;;;7.49;73.05;90758.41;5037116;28;20025;-89
2021/10/02 05:30:16;;;;;;;2.58;0.90;;;;;;;7.65;72.56;90757.56;5006354;28;20032;-89
2021/10/02 05:32:42;;;;;;;2.10;1.10;;;;;;;7.55;72.51;90757.91;5017041;28;20025;-89
2021/10/02 05:35:07;;;;;;;3.03;1.02;;;;;;;7.48;72.92;90760.25;5019616;28;20057;-89
2021/10/02 05:37:33;;;;;;;4.07;0.98;;;;;;;7.47;73.26;90756.13;5019568;28;20612;-89
2021/10/02 05:39:58;;;;;;;1.77;1.10;;;;;;;7.56;73.40;90751.69;5041265;28;20033;-89
2021/10/02 05:42:24;;;;;;;5.15;1.48;;;;;;;7.50;73.54;90749.56;5030969;28;20386;-90
2021/10/02 05:44:49;;;;;;;4.50;1.30;;;;;;;7.45;74.16;90747.88;5035515;28;20067;-91
2021/10/02 05:47:16;;;;;;;4.15;1.10;;;;;;;7.45;74.16;90750.47;5062379;28;20031;-91
2021/10/02 05:49:41;;;;;;;3.78;1.20;;;;;;;7.42;74.74;90749.28;5060992;28;20009;-91
2021/10/02 05:52:09;;;;;;;1.70;1.00;;;;;;;7.46;74.74;90753.88;5046656;28;20026;-89
2021/10/02 05:54:34;;;;;;;2.55;1.10;;;;;;;7.32;75.34;90757.41;5036988;28;20013;-90
2021/10/02 05:57:00;;;;;;;4.00;1.50;;;;;;;7.39;75.63;90751.75;5035540;28;20158;-89
2021/10/02 05:59:25;;;;;;;4.63;1.30;;;;;;;7.59;74.68;90752.88;5036157;28;20083;-89
2021/10/02 06:01:50;;;;;;;3.78;1.60;;;;;;;7.60;75.09;90754.41;5020713;28;20083;-90
2021/10/02 06:04:16;;;;;;;2.80;1.35;;;;;;;7.68;74.83;90760.63;5016990;28;20033;-89
2021/10/02 06:06:41;;;;;;;3.67;1.70;;;;;;;7.83;73.55;90760.06;5016374;28;20095;-90
2021/10/02 06:09:07;;;;;;;2.67;1.55;;;;;;;7.77;74.82;90756.88;5016246;28;20021;-90
2021/10/02 06:11:32;;;;;;;4.55;1.90;;;;;;;7.84;74.03;90751.19;4999202;28;20029;-90
2021/10/02 06:13:58;;;;;;;4.28;1.90;;;;;;;7.79;74.29;90756.59;4999474;28;20029;-90
2021/10/02 06:16:24;;;;;;;3.92;1.80;;;;;;;7.85;74.68;90760.53;5015676;28;20055;-90
2021/10/02 06:18:49;;;;;;;4.10;1.73;;;;;;;7.87;74.49;90756.53;5047737;28;20021;-89
2021/10/02 06:21:15;;;;;;;3.70;1.77;;;;;;;7.73;75.20;90760.41;5053593;28;20032;-90
2021/10/02 06:23:42;;;;;;;2.28;1.27;;;;;;;7.85;75.45;90768.31;5018895;28;20025;-89
2021/10/02 06:26:07;;;;;;;4.63;1.70;;;;;;;7.93;75.61;90772.69;5021674;28;20133;-89
2021/10/02 06:28:33;;;;;;;3.63;1.70;;;;;;;7.92;75.53;90765.22;5076670;23;20033;-88
2021/10/02 06:30:58;;;;;;;3.35;1.20;;;;;;;7.88;74.97;90752.13;5010086;28;20035;-90
2021/10/02 06:33:24;;;;;;;6.03;2.10;;;;;;;7.87;75.99;90745.38;5047825;28;20475;-87
2021/10/02 06:35:49;;;;;;;3.05;1.73;;;;;;;7.96;76.14;90735.72;5027438;28;20013;-89
2021/10/02 06:38:15;;;;;;;5.40;2.13;;;;;;;8.09;76.38;90729.53;5044924;28;20019;-88
2021/10/02 06:40:43;;;;;;;6.03;2.28;;;;;;;8.23;76.30;90721.47;5072557;28;20021;-87
2021/10/02 06:43:08;;;;;;;4.10;2.13;;;;;;;8.56;74.56;90731.94;5019626;28;20021;-87
2021/10/02 06:45:34;;;;;;;4.40;2.40;;;;;;;8.78;73.32;90751.59;5019037;28;20017;-87
2021/10/02 06:47:59;;;;;;;5.03;2.05;;;;;;;9.01;72.37;90741.59;5035366;28;20029;-87
2021/10/02 06:50:24;;;;;;;3.78;1.80;;;;;;;9.19;73.10;90736.97;5018748;28;20032;-87
2021/10/02 06:52:50;;;;;;;5.85;2.35;;;;;;;9.27;69.74;90740.53;5035520;28;20020;-87
2021/10/02 06:55:15;;;;;;;3.25;2.10;;;;;;;9.36;71.23;90743.78;5019194;28;20028;-87
2021/10/02 06:57:41;;;;;;;4.80;2.30;;;;;;;9.44;70.04;90737.00;5019120;28;20029;-87
2021/10/02 07:00:07;;;;;;;4.05;2.28;;;;;;;9.41;71.39;90730.59;5033410;28;20021;-87
2021/10/02 07:02:32;;;;;;;4.03;2.40;;;;;;;9.40;70.32;90742.09;5017986;28;20079;-87
2021/10/02 07:04:58;;;;;;;3.35;2.10;;;;;;;9.51;68.87;90742.41;5028983;28;20089;-87
2021/10/02 07:07:23;;;;;;;5.90;2.42;;;;;;;9.61;68.37;90743.81;5036207;28;20037;-87
2021/10/02 07:09:49;;;;;;;4.13;2.13;;;;;;;9.60;70.54;90753.44;5034183;28;20091;-87
2021/10/02 07:12:15;;;;;;;3.42;2.10;;;;;;;9.61;70.46;90749.00;5018508;28;20029;-87
2021/10/02 07:14:40;;;;;;;5.88;2.72;;;;;;;9.59;70.74;90744.13;5051693;28;20017;-89
2021/10/02 07:17:08;;;;;;;6.28;2.00;;;;;;;9.74;71.65;90742.72;5018546;28;20028;-89
2021/10/02 07:19:33;;;;;;;6.65;2.50;;;;;;;9.98;71.76;90747.91;5018248;28;20505;-89
2021/10/02 07:21:58;;;;;;;3.42;2.00;;;;;;;10.00;72.88;90737.94;5034858;28;20029;-89
2021/10/02 07:24:24;;;;;;;5.10;2.00;;;;;;;10.14;73.19;90744.63;5034865;28;20017;-89
2021/10/02 07:26:50;;;;;;;6.63;2.20;;;;;;;10.21;73.31;90750.03;5018123;28;20037;-89
2021/10/02 07:29:16;;;;;;;6.15;3.17;;;;;;;10.22;72.34;90736.69;5015510;28;20090;-88
2021/10/02 07:31:42;;;;;;;4.28;2.25;;;;;;;10.34;74.74;90738.53;5034766;28;20036;-89
2021/10/02 07:34:08;;;;;;;6.90;2.63;;;;;;;10.52;73.29;90744.22;5034526;28;20490;-89
2021/10/02 07:36:33;;;;;;;9.15;2.38;;;;;;;10.56;73.54;90731.31;5051206;28;20039;-89
2021/10/02 07:38:59;;;;;;;4.47;2.28;;;;;;;10.72;70.73;90729.50;5034488;28;20021;-88
2021/10/02 07:41:24;;;;;;;4.50;2.30;;;;;;;10.74;71.85;90735.13;5034528;28;20433;-89
2021/10/02 07:43:57;;;;;;;4.28;2.70;;;;;;;10.83;70.02;90733.16;5035688;28;20024;-88
2021/10/02 07:46:23;;;;;;;4.95;2.35;;;;;;;10.88;68.78;90734.75;5035581;28;20029;-89
2021/10/02 07:48:50;;;;;;;3.20;2.00;;;;;;;11.03;69.54;90736.63;5034738;28;20028;-89
2021/10/02 07:51:16;;;;;;;4.78;2.65;;;;;;;11.31;66.81;90736.59;5035804;28;20495;-89
2021/10/02 07:53:41;;;;;;;6.55;2.88;;;;;;;11.51;66.88;90739.28;5019440;28;20040;-89
2021/10/02 07:56:07;;;;;;;5.72;2.97;;;;;;;11.49;66.06;90737.00;5046490;28;20037;-89
2021/10/02 07:58:32;;;;;;;6.45;2.90;;;;;;;11.61;66.00;90749.97;5037884;28;20021;-88
2021/10/02 08:00:58;;;;;;;5.82;2.53;;;;;;;11.56;67.48;90737.19;5026043;28;20102;-88
2021/10/02 08:03:23;;;;;;;3.95;2.45;;;;;;;11.64;68.03;90730.28;5035999;28;20028;-89
2021/10/02 08:05:49;;;;;;;4.63;2.75;;;;;;;11.73;67.28;90726.41;5035897;28;20029;-89
2021/10/02 08:08:16;;;;;;;10.13;2.75;;;;;;;11.76;66.99;90724.94;5023408;28;20062;-89
2021/10/02 08:10:42;;;;;;;3.58;2.25;;;;;;;11.88;65.80;90722.28;5039327;28;20044;-88
2021/10/02 08:13:08;;;;;;;5.68;2.33;;;;;;;11.93;66.17;90721.25;5061608;28;20094;-89
2021/10/02 08:15:33;;;;;;;4.43;2.42;;;;;;;12.24;66.87;90730.84;5019959;28;20463;-89
2021/10/02 08:17:59;;;;;;;5.85;2.80;;;;;;;12.31;64.44;90732.88;5019155;28;20036;-89
2021/10/02 08:20:24;;;;;;;4.50;2.88;;;;;;;12.27;65.27;90730.19;5031193;28;20483;-88
2021/10/02 08:22:51;;;;;;;5.22;2.85;;;;;;;12.39;65.89;90740.50;5002410;28;20036;-89
2021/10/02 08:25:17;;;;;;;6.07;2.90;;;;;;;12.56;65.70;90741.97;5038381;28;20217;-88
2021/10/02 08:27:43;;;;;;;5.72;3.00;;;;;;;12.51;65.15;90731.78;5049149;28;20025;-88
2021/10/02 08:30:09;;;;;;;7.18;3.17;;;;;;;12.78;64.28;90735.28;5035350;28;20036;-88
2021/10/02 08:32:35;;;;;;;8.32;3.13;;;;;;;12.58;63.92;90737.16;5026491;28;20028;-88
2021/10/02 08:35:01;;;;;;;9.00;3.20;;;;;;;12.79;65.04;90730.81;5018822;28;20029;-88
2021/10/02 08:37:26;;;;;;;5.85;2.90;;;;;;;12.88;64.60;90723.50;5018572;28;20029;-87
2021/10/02 08:39:52;;;;;;;5.25;2.80;;;;;;;12.90;64.27;90727.31;4985415;28;20402;-88
2021/10/02 08:42:18;;;;;;;6.75;3.53;;;;;;;13.03;65.93;90725.28;5004415;28;20033;-88
2021/10/02 08:44:43;;;;;;;5.78;3.40;;;;;;;13.01;64.06;90724.13;5019065;28;20017;-89
2021/10/02 08:47:09;;;;;;;5.65;2.83;;;;;;;13.09;64.03;90723.13;5002994;28;20438;-89
2021/10/02 08:49:42;;;;;;;4.25;2.72;;;;;;;13.05;64.88;90714.47;5018910;28;20029;-90
2021/10/02 08:52:07;;;;;;;5.32;2.90;;;;;;;13.20;65.29;90718.09;5025296;28;20025;-89
2021/10/02 08:54:35;;;;;;;5.05;3.10;;;;;;;13.28;64.67;90714.50;5036707;28;20036;-88
2021/10/02 08:57:00;;;;;;;5.57;2.58;;;;;;;13.37;65.55;90713.19;5036191;28;20024;-88
2021/10/02 08:59:26;;;;;;;6.68;3.30;;;;;;;13.45;63.38;90718.53;5021830;28;20083;-88
2021/10/02 09:01:51;;;;;;;4.97;3.03;;;;;;;13.52;65.00;90716.03;5022024;28;20025;-89
2021/10/02 09:04:17;;;;;;;5.50;3.10;;;;;;;13.52;65.20;90718.66;5021657;28;20032;-87
2021/10/02 09:06:43;;;;;;;6.05;3.20;;;;;;;13.62;64.97;90718.06;5020951;28;20033;-90
2021/10/02 09:09:08;;;;;;;5.50;3.25;;;;;;;13.58;65.36;90707.53;5002779;28;20557;-89
2021/10/02 09:11:34;;;;;;;5.05;3.13;;;;;;;13.61;64.20;90704.22;5035296;28;20026;-89
2021/10/02 09:13:59;;;;;;;5.68;3.00;;;;;;;13.65;63.84;90701.66;5070698;28;20009;-89
2021/10/02 09:16:25;;;;;;;5.63;3.55;;;;;;;13.57;65.54;90700.78;5027702;28;20037;-88
2021/10/02 09:18:50;;;;;;;4.07;2.90;;;;;;;13.53;64.70;90688.72;5038445;28;20399;-89
2021/10/02 09:21:16;;;;;;;8.60;3.03;;;;;;;13.69;64.48;90691.97;5037852;28;20017;-91
2021/10/02 09:23:46;;;;;;;6.85;2.88;;;;;;;13.82;63.50;90679.47;5024738;28;20025;-88
2021/10/02 09:26:11;;;;;;;4.82;2.88;;;;;;;13.84;63.46;90683.22;5022936;28;20075;-89
2021/10/02 09:28:42;;;;;;;4.70;2.85;;;;;;;13.96;61.22;90684.16;5022074;28;20033;-89
2021/10/02 09:31:07;;;;;;;6.28;3.00;;;;;;;14.06;61.22;90686.13;5027612;28;20028;-89
2021/10/02 09:33:33;;;;;;;4.90;3.00;;;;;;;14.01;60.80;90691.69;5035682;28;20021;-89
2021/10/02 09:35:59;;;;;;;5.05;2.92;;;;;;;14.00;61.02;90680.47;5022553;28;20489;-90
2021/10/02 09:38:24;;;;;;;4.57;2.90;;;;;;;14.02;60.80;90682.72;5034720;28;20037;-92
2021/10/02 09:40:58;;;;;;;6.05;2.80;;;;;;;14.11;60.10;90675.34;5043687;28;20061;-88
2021/10/02 09:43:24;;;;;;;4.88;2.90;;;;;;;14.14;60.48;90685.13;5021842;28;20028;-89
2021/10/02 09:45:50;;;;;;;5.93;3.10;;;;;;;14.16;60.53;90677.66;5022101;28;20494;-89
2021/10/02 09:48:26;;;;;;;7.25;3.10;;;;;;;14.37;59.44;90673.78;5054083;28;20033;-89
2021/10/02 09:50:52;;;;;;;5.78;3.00;;;;;;;14.39;62.18;90674.22;5037644;28;20087;-89
2021/10/02 09:53:18;;;;;;;5.80;3.20;;;;;;;14.66;59.78;90680.91;5037697;28;20479;-90
2021/10/02 09:55:45;;;;;;;5.43;3.15;;;;;;;14.86;61.43;90675.50;5037767;28;20107;-89
2021/10/02 09:58:34;;;;;;;5.18;3.17;;;;;;;14.86;60.66;90672.88;5021645;28;20024;-89
2021/10/02 10:01:04;;;;;;;6.63;3.17;;;;;;;14.95;60.57;90662.88;5013774;28;20119;-89
2021/10/02 10:03:49;;;;;;;5.40;3.55;;;;;;;15.09;60.97;90664.84;5022141;28;20017;-90
2021/10/02 10:06:25;;;;;;;7.57;3.80;;;;;;;15.09;59.00;90673.50;5037895;28;20052;-89
2021/10/02 10:09:10;;;;;;;6.07;3.60;;;;;;;15.32;58.31;90675.94;5008113;28;20054;-90
2021/10/02 10:11:46;;;;;;;8.50;3.90;;;;;;;15.47;58.99;90671.56;5040668;28;20427;-89
2021/10/02 10:14:22;;;;;;;5.80;3.72;;;;;;;15.60;59.25;90666.78;5037526;28;20119;-89
2021/10/02 10:16:48;;;;;;;4.50;3.65;;;;;;;15.75;58.76;90663.91;5038170;28;20028;-89
2021/10/02 10:19:17;;;;;;;5.90;3.30;;;;;;;15.93;58.17;90661.41;5020710;28;20103;-89
2021/10/02 10:21:42;;;;;;;5.53;3.60;;;;;;;15.80;56.06;90651.56;5054383;28;20032;-91
2021/10/02 10:24:08;;;;;;;6.85;3.63;;;;;;;15.61;57.19;90650.66;5037736;28;20025;-89
2021/10/02 10:26:33;;;;;;;5.93;3.70;;;;;;;15.84;56.63;90647.84;5013997;28;20021;-89
2021/10/02 10:28:59;;;;;;;5.07;3.15;;;;;;;15.85;56.70;90644.09;5017404;28;20033;-90
2021/10/02 10:31:26;;;;;;;5.13;3.22;;;;;;;15.85;54.81;90643.34;5038689;28;20031;-94
2021/10/02 10:33:56;;;;;;;7.35;3.40;;;;;;;15.90;54.44;90632.47;5055889;28;20039;-92
2021/10/02 10:36:23;;;;;;;6.88;3.40;;;;;;;15.89;56.63;90630.97;5044199;28;20013;-93
2021/10/02 10:38:49;;;;;;;6.95;3.50;;;;;;;16.12;55.88;90625.47;5038946;28;20033;-88
2021/10/02 10:41:16;;;;;;;7.15;3.00;;;;;;;16.18;54.28;90618.72;5016759;28;20036;-89
2021/10/02 10:43:42;;;;;;;5.93;3.55;;;;;;;15.99;55.63;90614.50;5018999;28;20024;-89
2021/10/02 10:46:08;;;;;;;5.63;3.47;;;;;;;15.99;55.88;90615.25;5019723;28;20032;-89
2021/10/02 10:48:34;;;;;;;6.72;3.35;;;;;;;16.30;55.25;90612.41;5036353;28;20025;-90
2021/10/02 10:51:13;;;;;;;6.05;3.70;;;;;;;16.39;54.14;90618.06;5052239;28;20410;-89
2021/10/02 10:53:40;;;;;;;4.47;3.30;;;;;;;16.47;53.31;90611.72;5036208;28;20092;-90
2021/10/02 10:56:06;;;;;;;7.25;3.10;;;;;;;16.47;53.16;90609.09;5037926;28;20433;-89
2021/10/02 10:58:32;;;;;;;5.20;2.95;;;;;;;16.61;51.93;90606.50;5019495;28;20057;-89
2021/10/02 11:00:58;;;;;;;6.45;3.58;;;;;;;16.58;55.70;90617.78;4998932;28;20061;-88
2021/10/02 11:03:44;;;;;;;4.32;3.22;;;;;;;16.73;53.46;90608.78;5029677;28;20119;-89
2021/10/02 11:06:13;;;;;;;5.18;3.20;;;;;;;16.75;54.48;90602.41;5017326;28;20017;-89
2021/10/02 11:09:07;;;;;;;5.85;3.55;;;;;;;16.86;54.36;90608.47;5017584;28;20163;-89
2021/10/02 11:11:44;;;;;;;5.45;3.50;;;;;;;16.83;54.33;90609.22;5032553;28;20112;-89
2021/10/02 11:14:12;;;;;;;4.47;3.10;;;;;;;17.07;53.74;90597.22;5032558;28;20739;-90
2021/10/02 11:16:39;;;;;;;4.82;3.20;;;;;;;17.15;54.90;90604.75;5014730;28;20497;-89
2021/10/02 11:19:34;;;;;;;5.97;3.75;;;;;;;17.27;51.13;90605.50;5033500;28;20029;-89
2021/10/02 11:22:42;;;;;;;5.70;3.25;;;;;;;17.12;50.46;90594.97;5015622;28;20079;-88
2021/10/02 11:25:18;;;;;;;5.05;3.15;;;;;;;17.44;52.48;90583.69;5034062;28;20029;-89
2021/10/02 11:27:43;;;;;;;4.13;3.28;;;;;;;17.49;51.64;90587.81;5034905;28;20032;-89
2021/10/02 11:30:13;;;;;;;5.55;3.88;;;;;;;17.87;52.25;90586.28;5034800;28;20382;-89
2021/10/02 11:32:38;;;;;;;6.00;3.58;;;;;;;18.05;51.71;90589.63;5030817;28;20021;-89
2021/10/02 11:35:14;;;;;;;5.75;3.40;;;;;;;18.09;51.43;90573.78;5015385;28;20018;-89
2021/10/02 11:37:44;;;;;;;4.13;3.25;;;;;;;17.59;49.42;90563.34;5039861;28;20048;-89
2021/10/02 11:40:31;;;;;;;4.95;3.17;;;;;;;17.20;51.96;90570.13;5054622;28;20033;-88
2021/10/02 11:43:15;;;;;;;5.78;3.58;;;;;;;17.27;52.21;90566.00;5037945;28;20075;-90
2021/10/02 11:45:41;;;;;;;7.05;4.20;;;;;;;17.46;52.67;90552.47;5037943;28;20052;-90
2021/10/02 11:48:15;;;;;;;6.13;3.70;;;;;;;17.43;55.18;90550.56;5054565;28;20036;-89
2021/10/02 11:50:40;;;;;;;6.60;3.63;;;;;;;17.25;53.77;90555.09;5021390;28;20032;-89
2021/10/02 11:53:06;;;;;;;5.30;3.85;;;;;;;17.25;52.09;90555.84;5037870;28;20021;-89
2021/10/02 11:55:43;;;;;;;4.05;3.30;;;;;;;16.94;55.02;90547.56;5055648;28;20045;-90
2021/10/02 11:58:11;;;;;;;6.53;3.67;;;;;;;16.98;55.10;90549.47;5037945;28;20029;-89
2021/10/02 12:00:47;;;;;;;10.38;4.65;;;;;;;17.04;56.89;90553.22;5055681;28;20170;-90
2021/10/02 12:03:14;;;;;;;6.13;3.90;;;;;;;16.86;57.90;90545.31;5021490;28;20552;-89
2021/10/02 12:05:43;;;;;;;7.13;4.40;;;;;;;16.78;57.96;90538.53;5036086;28;20075;-89
2021/10/02 12:08:08;;;;;;;7.07;4.00;;;;;;;16.67;58.35;90547.13;5018297;28;20383;-89
2021/10/02 12:10:59;;;;;;;10.25;4.85;;;;;;;17.08;59.44;90546.81;5034139;28;20032;-90
2021/10/02 12:13:35;;;;;;;9.75;4.85;;;;;;;17.23;59.48;90525.75;5017478;28;20028;-89
2021/10/02 12:16:36;;;;;;;17.05;13.65;;;;;;;17.27;58.52;90531.78;5021064;28;20028;-87
2021/10/02 12:19:07;;;;;;;7.78;4.82;;;;;;;17.19;59.11;90526.50;5038467;28;20036;-91
2021/10/02 12:21:35;;;;;;;7.25;4.88;;;;;;;17.13;57.82;90528.00;5021521;28;20206;-90
2021/10/02 12:24:16;;;;;;;6.32;4.38;;;;;;;16.98;57.24;90531.03;5058842;28;20025;-87
2021/10/02 12:26:44;;;;;;;11.25;8.30;;;;;;;17.20;58.61;90511.47;5038343;28;20032;-88
2021/10/02 12:29:10;;;;;;;9.48;5.65;;;;;;;17.52;56.82;90513.28;5111809;23;20025;-88
2021/10/02 12:32:02;;;;;;;8.70;5.50;;;;;;;17.61;58.08;90517.03;4983745;28;20163;-85